sensor_id;sensor_type;location;lat;lon;timestamp;pressure;altitude;pressure_sealevel;temperature;humidity
63321;BME280;49449;48.800;9.534;2022-12-18T00:01:59;99719.78;;;-5.28;36.25
63321;BME280;49449;48.800;9.534;2022-12-18T00:04:27;99718.13;;;-5.29;35.95
63321;BME280;49449;48.800;9.534;2022-12-18T00:06:55;99714.00;;;-5.32;36.54
63321;BME280;49449;48.800;9.534;2022-12-18T00:09:23;99720.06;;;-5.33;36.49
63321;BME280;49449;48.800;9.534;2022-12-18T00:11:51;99714.19;;;-5.35;36.67
63321;BME280;49449;48.800;9.534;2022-12-18T00:14:20;99718.53;;;-5.35;36.16
63321;BME280;49449;48.800;9.534;2022-12-18T00:16:48;99719.53;;;-5.38;36.14
63321;BME280;49449;48.800;9.534;2022-12-18T00:19:16;99712.56;;;-5.36;35.85
63321;BME280;49449;48.800;9.534;2022-12-18T00:21:43;99713.47;;;-5.37;36.53
63321;BME280;49449;48.800;9.534;2022-12-18T00:24:11;99719.75;;;-5.41;36.68
63321;BME280;49449;48.800;9.534;2022-12-18T00:26:39;99722.50;;;-5.44;37.39
63321;BME280;49449;48.800;9.534;2022-12-18T00:29:10;99717.25;;;-5.42;36.53
63321;BME280;49449;48.800;9.534;2022-12-18T00:31:42;99728.47;;;-5.43;36.67
63321;BME280;49449;48.800;9.534;2022-12-18T00:34:10;99721.47;;;-5.41;37.22
63321;BME280;49449;48.800;9.534;2022-12-18T00:36:39;99719.09;;;-5.44;37.21
63321;BME280;49449;48.800;9.534;2022-12-18T00:39:08;99721.47;;;-5.41;35.95
63321;BME280;49449;48.800;9.534;2022-12-18T00:41:37;99716.44;;;-5.43;35.57
63321;BME280;49449;48.800;9.534;2022-12-18T00:44:22;99735.47;;;-5.45;36.67
63321;BME280;49449;48.800;9.534;2022-12-18T00:46:51;99739.06;;;-5.48;36.34
63321;BME280;49449;48.800;9.534;2022-12-18T00:49:19;99727.09;;;-5.49;36.82
63321;BME280;49449;48.800;9.534;2022-12-18T00:51:47;99721.13;;;-5.50;36.58
63321;BME280;49449;48.800;9.534;2022-12-18T00:54:15;99719.78;;;-5.55;35.11
63321;BME280;49449;48.800;9.534;2022-12-18T00:56:56;99723.34;;;-5.58;34.54
63321;BME280;49449;48.800;9.534;2022-12-18T00:59:25;99726.31;;;-5.64;34.33
63321;BME280;49449;48.800;9.534;2022-12-18T01:08:58;99712.03;;;-5.70;35.82
63321;BME280;49449;48.800;9.534;2022-12-18T01:11:46;99714.75;;;-5.71;36.41
63321;BME280;49449;48.800;9.534;2022-12-18T01:14:53;99709.69;;;-5.87;35.73
63321;BME280;49449;48.800;9.534;2022-12-18T01:17:58;99709.50;;;-5.84;36.01
63321;BME280;49449;48.800;9.534;2022-12-18T01:21:26;99723.94;;;-5.81;37.68
63321;BME280;49449;48.800;9.534;2022-12-18T01:23:56;99712.63;;;-5.79;36.34
63321;BME280;49449;48.800;9.534;2022-12-18T01:26:26;99723.94;;;-5.81;36.23
63321;BME280;49449;48.800;9.534;2022-12-18T01:28:56;99717.94;;;-5.82;35.49
63321;BME280;49449;48.800;9.534;2022-12-18T01:31:26;99731.03;;;-5.85;36.02
63321;BME280;49449;48.800;9.534;2022-12-18T01:33:56;99733.59;;;-5.85;36.50
63321;BME280;49449;48.800;9.534;2022-12-18T01:36:26;99745.53;;;-5.84;35.70
63321;BME280;49449;48.800;9.534;2022-12-18T01:38:55;99747.03;;;-5.80;35.25
63321;BME280;49449;48.800;9.534;2022-12-18T01:41:24;99751.97;;;-5.91;35.80
63321;BME280;49449;48.800;9.534;2022-12-18T01:43:54;99747.19;;;-5.97;35.72
63321;BME280;49449;48.800;9.534;2022-12-18T01:46:26;99741.97;;;-5.96;42.77
63321;BME280;49449;48.800;9.534;2022-12-18T01:48:57;99746.09;;;-5.93;37.56
63321;BME280;49449;48.800;9.534;2022-12-18T01:51:27;99746.47;;;-5.99;36.69
63321;BME280;49449;48.800;9.534;2022-12-18T01:53:55;99742.97;;;-5.98;36.59
63321;BME280;49449;48.800;9.534;2022-12-18T01:56:22;99731.84;;;-5.99;36.70
63321;BME280;49449;48.800;9.534;2022-12-18T01:58:54;99729.91;;;-5.95;36.34
63321;BME280;49449;48.800;9.534;2022-12-18T02:01:24;99725.75;;;-5.98;37.40
63321;BME280;49449;48.800;9.534;2022-12-18T02:03:52;99726.88;;;-6.02;37.06
63321;BME280;49449;48.800;9.534;2022-12-18T02:06:22;99734.41;;;-5.99;36.80
63321;BME280;49449;48.800;9.534;2022-12-18T02:09:03;99726.69;;;-5.99;38.30
63321;BME280;49449;48.800;9.534;2022-12-18T02:11:42;99723.94;;;-5.96;37.75
63321;BME280;49449;48.800;9.534;2022-12-18T02:14:18;99724.03;;;-5.97;36.71
63321;BME280;49449;48.800;9.534;2022-12-18T02:16:54;99720.63;;;-5.98;37.39
63321;BME280;49449;48.800;9.534;2022-12-18T02:19:39;99726.59;;;-6.12;36.97
63321;BME280;49449;48.800;9.534;2022-12-18T02:22:19;99732.28;;;-6.07;36.49
63321;BME280;49449;48.800;9.534;2022-12-18T02:25:05;99736.44;;;-6.04;36.99
63321;BME280;49449;48.800;9.534;2022-12-18T02:27:39;99743.91;;;-5.99;36.68
63321;BME280;49449;48.800;9.534;2022-12-18T02:30:08;99740.38;;;-5.98;37.89
63321;BME280;49449;48.800;9.534;2022-12-18T02:32:39;99744.53;;;-5.96;37.76
63321;BME280;49449;48.800;9.534;2022-12-18T02:35:15;99738.44;;;-5.95;38.52
63321;BME280;49449;48.800;9.534;2022-12-18T02:37:45;99751.16;;;-5.92;35.53
63321;BME280;49449;48.800;9.534;2022-12-18T02:40:15;99739.91;;;-5.91;35.98
63321;BME280;49449;48.800;9.534;2022-12-18T02:42:45;99734.88;;;-5.92;37.32
63321;BME280;49449;48.800;9.534;2022-12-18T02:45:13;99747.75;;;-5.92;37.36
63321;BME280;49449;48.800;9.534;2022-12-18T02:47:43;99741.59;;;-5.90;36.53
63321;BME280;49449;48.800;9.534;2022-12-18T02:50:18;99746.56;;;-5.87;36.14
63321;BME280;49449;48.800;9.534;2022-12-18T02:52:55;99744.16;;;-5.90;35.98
63321;BME280;49449;48.800;9.534;2022-12-18T02:55:33;99755.47;;;-5.92;35.98
63321;BME280;49449;48.800;9.534;2022-12-18T02:58:09;99755.81;;;-5.98;36.30
63321;BME280;49449;48.800;9.534;2022-12-18T03:00:42;99763.16;;;-6.07;36.63
63321;BME280;49449;48.800;9.534;2022-12-18T03:03:11;99756.19;;;-6.04;36.80
63321;BME280;49449;48.800;9.534;2022-12-18T03:05:47;99756.00;;;-6.01;37.03
63321;BME280;49449;48.800;9.534;2022-12-18T03:08:19;99764.75;;;-6.04;35.88
63321;BME280;49449;48.800;9.534;2022-12-18T03:10:51;99756.00;;;-6.01;36.93
63321;BME280;49449;48.800;9.534;2022-12-18T03:13:26;99763.63;;;-6.00;36.65
63321;BME280;49449;48.800;9.534;2022-12-18T03:15:56;99762.00;;;-6.01;37.37
63321;BME280;49449;48.800;9.534;2022-12-18T03:18:29;99760.25;;;-6.00;36.90
63321;BME280;49449;48.800;9.534;2022-12-18T03:21:00;99765.47;;;-6.02;37.37
63321;BME280;49449;48.800;9.534;2022-12-18T03:23:33;99770.53;;;-6.00;37.41
63321;BME280;49449;48.800;9.534;2022-12-18T03:26:07;99761.06;;;-6.00;36.85
63321;BME280;49449;48.800;9.534;2022-12-18T03:28:40;99762.56;;;-5.96;37.59
63321;BME280;49449;48.800;9.534;2022-12-18T03:31:12;99773.94;;;-6.00;35.76
63321;BME280;49449;48.800;9.534;2022-12-18T03:33:43;99767.88;;;-5.99;35.69
63321;BME280;49449;48.800;9.534;2022-12-18T03:36:14;99760.88;;;-5.97;36.58
63321;BME280;49449;48.800;9.534;2022-12-18T03:38:42;99763.72;;;-6.01;37.44
63321;BME280;49449;48.800;9.534;2022-12-18T03:41:16;99779.16;;;-6.01;37.10
63321;BME280;49449;48.800;9.534;2022-12-18T03:43:50;99785.25;;;-6.02;36.31
63321;BME280;49449;48.800;9.534;2022-12-18T03:46:25;99775.50;;;-6.12;38.14
63321;BME280;49449;48.800;9.534;2022-12-18T03:49:01;99772.28;;;-6.15;37.10
63321;BME280;49449;48.800;9.534;2022-12-18T03:51:37;99770.94;;;-6.22;35.18
63321;BME280;49449;48.800;9.534;2022-12-18T03:54:08;99776.75;;;-6.19;36.64
63321;BME280;49449;48.800;9.534;2022-12-18T03:56:40;99773.91;;;-6.14;37.34
63321;BME280;49449;48.800;9.534;2022-12-18T03:59:12;99779.72;;;-6.11;36.88
63321;BME280;49449;48.800;9.534;2022-12-18T04:01:45;99775.22;;;-6.07;37.69
63321;BME280;49449;48.800;9.534;2022-12-18T04:04:15;99770.34;;;-6.12;37.48
63321;BME280;49449;48.800;9.534;2022-12-18T04:06:45;99774.84;;;-6.15;37.14
63321;BME280;49449;48.800;9.534;2022-12-18T04:09:14;99767.66;;;-6.10;37.04
63321;BME280;49449;48.800;9.534;2022-12-18T04:11:42;99765.22;;;-6.12;37.01
63321;BME280;49449;48.800;9.534;2022-12-18T04:14:12;99759.03;;;-6.23;35.83
63321;BME280;49449;48.800;9.534;2022-12-18T04:16:42;99763.22;;;-6.22;36.91
63321;BME280;49449;48.800;9.534;2022-12-18T04:19:10;99766.25;;;-6.30;37.17
63321;BME280;49449;48.800;9.534;2022-12-18T04:21:38;99771.06;;;-6.24;37.94
63321;BME280;49449;48.800;9.534;2022-12-18T04:24:06;99767.22;;;-6.17;38.32
63321;BME280;49449;48.800;9.534;2022-12-18T04:26:34;99767.88;;;-6.13;37.02
63321;BME280;49449;48.800;9.534;2022-12-18T04:29:02;99762.25;;;-6.20;37.41
63321;BME280;49449;48.800;9.534;2022-12-18T04:31:31;99758.47;;;-6.14;37.88
63321;BME280;49449;48.800;9.534;2022-12-18T04:33:59;99759.78;;;-6.07;37.21
63321;BME280;49449;48.800;9.534;2022-12-18T04:36:27;99762.88;;;-6.16;36.61
63321;BME280;49449;48.800;9.534;2022-12-18T04:38:54;99768.69;;;-6.13;37.86
63321;BME280;49449;48.800;9.534;2022-12-18T04:41:22;99770.22;;;-6.10;38.91
63321;BME280;49449;48.800;9.534;2022-12-18T04:43:50;99777.69;;;-6.06;40.25
63321;BME280;49449;48.800;9.534;2022-12-18T04:46:17;99780.19;;;-6.04;40.53
63321;BME280;49449;48.800;9.534;2022-12-18T04:48:47;99782.66;;;-6.02;40.56
63321;BME280;49449;48.800;9.534;2022-12-18T04:51:14;99791.13;;;-6.00;38.81
63321;BME280;49449;48.800;9.534;2022-12-18T04:53:42;99789.38;;;-6.00;40.05
63321;BME280;49449;48.800;9.534;2022-12-18T04:56:12;99790.09;;;-5.98;40.96
63321;BME280;49449;48.800;9.534;2022-12-18T04:58:44;99784.78;;;-5.95;39.23
63321;BME280;49449;48.800;9.534;2022-12-18T05:01:13;99784.78;;;-5.95;41.12
63321;BME280;49449;48.800;9.534;2022-12-18T05:03:41;99788.94;;;-5.92;40.04
63321;BME280;49449;48.800;9.534;2022-12-18T05:06:11;99783.41;;;-5.86;38.67
63321;BME280;49449;48.800;9.534;2022-12-18T05:08:39;99782.50;;;-5.85;39.31
63321;BME280;49449;48.800;9.534;2022-12-18T05:11:08;99772.00;;;-5.82;38.51
63321;BME280;49449;48.800;9.534;2022-12-18T05:13:36;99767.78;;;-5.83;39.11
63321;BME280;49449;48.800;9.534;2022-12-18T05:16:06;99776.97;;;-5.79;39.40
63321;BME280;49449;48.800;9.534;2022-12-18T05:18:34;99785.81;;;-5.83;41.33
63321;BME280;49449;48.800;9.534;2022-12-18T05:21:02;99783.88;;;-5.79;40.84
63321;BME280;49449;48.800;9.534;2022-12-18T05:23:32;99781.84;;;-5.89;42.25
63321;BME280;49449;48.800;9.534;2022-12-18T05:26:05;99774.78;;;-5.85;41.06
63321;BME280;49449;48.800;9.534;2022-12-18T05:28:35;99770.19;;;-5.80;40.94
63321;BME280;49449;48.800;9.534;2022-12-18T05:31:04;99785.44;;;-5.77;39.91
63321;BME280;49449;48.800;9.534;2022-12-18T05:33:33;99770.63;;;-5.73;40.97
63321;BME280;49449;48.800;9.534;2022-12-18T05:36:03;99768.59;;;-5.68;41.86
63321;BME280;49449;48.800;9.534;2022-12-18T05:38:34;99774.78;;;-5.71;41.08
63321;BME280;49449;48.800;9.534;2022-12-18T05:41:02;99772.28;;;-5.72;41.38
63321;BME280;49449;48.800;9.534;2022-12-18T05:43:30;99765.22;;;-5.69;41.68
63321;BME280;49449;48.800;9.534;2022-12-18T05:46:03;99767.59;;;-5.65;40.72
63321;BME280;49449;48.800;9.534;2022-12-18T05:48:31;99770.34;;;-5.69;40.62
63321;BME280;49449;48.800;9.534;2022-12-18T05:51:04;99775.50;;;-5.69;41.46
63321;BME280;49449;48.800;9.534;2022-12-18T05:53:33;99775.50;;;-5.69;42.36
63321;BME280;49449;48.800;9.534;2022-12-18T05:56:01;99774.13;;;-5.60;40.33
63321;BME280;49449;48.800;9.534;2022-12-18T05:58:30;99774.84;;;-5.58;41.09
63321;BME280;49449;48.800;9.534;2022-12-18T06:00:58;99778.06;;;-5.54;41.83
63321;BME280;49449;48.800;9.534;2022-12-18T06:03:32;99772.09;;;-5.55;42.37
63321;BME280;49449;48.800;9.534;2022-12-18T06:06:00;99772.56;;;-5.48;41.26
63321;BME280;49449;48.800;9.534;2022-12-18T06:08:28;99786.00;;;-5.43;41.16
63321;BME280;49449;48.800;9.534;2022-12-18T06:10:57;99795.28;;;-5.40;42.70
63321;BME280;49449;48.800;9.534;2022-12-18T06:13:25;99799.69;;;-5.42;43.17
63321;BME280;49449;48.800;9.534;2022-12-18T06:15:52;99789.28;;;-5.41;41.53
63321;BME280;49449;48.800;9.534;2022-12-18T06:18:20;99789.22;;;-5.39;41.50
63321;BME280;49449;48.800;9.534;2022-12-18T06:20:54;99787.16;;;-5.49;39.56
63321;BME280;49449;48.800;9.534;2022-12-18T06:23:22;99792.06;;;-5.44;41.03
63321;BME280;49449;48.800;9.534;2022-12-18T06:25:50;99792.06;;;-5.44;41.11
63321;BME280;49449;48.800;9.534;2022-12-18T06:28:19;99797.94;;;-5.42;42.33
63321;BME280;49449;48.800;9.534;2022-12-18T06:30:47;99790.22;;;-5.42;42.84
63321;BME280;49449;48.800;9.534;2022-12-18T06:33:16;99785.59;;;-5.37;41.90
63321;BME280;49449;48.800;9.534;2022-12-18T06:35:43;99787.34;;;-5.37;41.50
63321;BME280;49449;48.800;9.534;2022-12-18T06:38:11;99796.81;;;-5.38;43.91
63321;BME280;49449;48.800;9.534;2022-12-18T06:40:39;99798.66;;;-5.40;43.59
63321;BME280;49449;48.800;9.534;2022-12-18T06:43:06;99801.16;;;-5.38;42.60
63321;BME280;49449;48.800;9.534;2022-12-18T06:45:35;99801.88;;;-5.36;42.66
63321;BME280;49449;48.800;9.534;2022-12-18T06:48:03;99793.50;;;-5.40;44.21
63321;BME280;49449;48.800;9.534;2022-12-18T06:50:31;99796.72;;;-5.36;44.27
63321;BME280;49449;48.800;9.534;2022-12-18T06:52:59;99794.34;;;-5.39;42.52
63321;BME280;49449;48.800;9.534;2022-12-18T06:55:27;99793.50;;;-5.40;40.75
63321;BME280;49449;48.800;9.534;2022-12-18T06:57:54;99793.50;;;-5.40;41.35
63321;BME280;49449;48.800;9.534;2022-12-18T07:00:22;99808.16;;;-5.40;42.00
63321;BME280;49449;48.800;9.534;2022-12-18T07:02:51;99812.38;;;-5.39;43.46
63321;BME280;49449;48.800;9.534;2022-12-18T07:05:19;99815.69;;;-5.37;43.85
63321;BME280;49449;48.800;9.534;2022-12-18T07:07:47;99821.13;;;-5.42;39.62
63321;BME280;49449;48.800;9.534;2022-12-18T07:10:14;99827.09;;;-5.41;48.98
63321;BME280;49449;48.800;9.534;2022-12-18T07:12:42;99833.72;;;-5.37;50.31
63321;BME280;49449;48.800;9.534;2022-12-18T07:15:10;99830.13;;;-5.35;45.94
63321;BME280;49449;48.800;9.534;2022-12-18T07:17:38;99828.50;;;-5.36;43.16
63321;BME280;49449;48.800;9.534;2022-12-18T07:20:08;99815.50;;;-5.34;44.27
63321;BME280;49449;48.800;9.534;2022-12-18T07:22:36;99820.38;;;-5.30;43.19
63321;BME280;49449;48.800;9.534;2022-12-18T07:25:05;99825.44;;;-5.28;43.19
63321;BME280;49449;48.800;9.534;2022-12-18T07:27:33;99826.97;;;-5.25;42.94
63321;BME280;49449;48.800;9.534;2022-12-18T07:30:01;99837.03;;;-5.21;43.06
63321;BME280;49449;48.800;9.534;2022-12-18T07:32:30;99847.25;;;-5.19;43.19
63321;BME280;49449;48.800;9.534;2022-12-18T07:34:57;99849.91;;;-5.21;43.05
63321;BME280;49449;48.800;9.534;2022-12-18T07:37:26;99846.50;;;-5.21;42.04
63321;BME280;49449;48.800;9.534;2022-12-18T07:39:54;99848.69;;;-5.15;42.41
63321;BME280;49449;48.800;9.534;2022-12-18T07:42:22;99850.81;;;-5.07;41.20
63321;BME280;49449;48.800;9.534;2022-12-18T07:44:59;99845.09;;;-4.98;41.77
63321;BME280;49449;48.800;9.534;2022-12-18T07:47:27;99848.41;;;-4.96;41.35
63321;BME280;49449;48.800;9.534;2022-12-18T07:49:58;99855.47;;;-4.85;41.16
63321;BME280;49449;48.800;9.534;2022-12-18T07:52:27;99853.97;;;-4.75;41.05
63321;BME280;49449;48.800;9.534;2022-12-18T07:54:54;99850.88;;;-4.67;41.97
63321;BME280;49449;48.800;9.534;2022-12-18T07:57:22;99838.84;;;-4.67;42.35
63321;BME280;49449;48.800;9.534;2022-12-18T08:00:11;99847.69;;;-4.71;41.82
63321;BME280;49449;48.800;9.534;2022-12-18T08:02:39;99855.78;;;-4.63;41.74
63321;BME280;49449;48.800;9.534;2022-12-18T08:05:08;99852.59;;;-4.54;42.08
63321;BME280;49449;48.800;9.534;2022-12-18T08:07:37;99850.56;;;-4.48;41.48
63321;BME280;49449;48.800;9.534;2022-12-18T08:10:06;99857.16;;;-4.44;42.14
63321;BME280;49449;48.800;9.534;2022-12-18T08:12:34;99850.91;;;-4.40;42.82
63321;BME280;49449;48.800;9.534;2022-12-18T08:15:01;99853.69;;;-4.30;41.17
63321;BME280;49449;48.800;9.534;2022-12-18T08:17:29;99855.72;;;-4.21;41.59
63321;BME280;49449;48.800;9.534;2022-12-18T08:19:57;99861.28;;;-4.15;41.74
63321;BME280;49449;48.800;9.534;2022-12-18T08:22:25;99869.34;;;-4.06;40.32
63321;BME280;49449;48.800;9.534;2022-12-18T08:24:54;99854.59;;;-4.04;40.40
63321;BME280;49449;48.800;9.534;2022-12-18T08:27:22;99846.22;;;-3.95;39.78
63321;BME280;49449;48.800;9.534;2022-12-18T08:29:57;99839.94;;;-3.91;40.36
63321;BME280;49449;48.800;9.534;2022-12-18T08:32:25;99831.47;;;-3.80;41.22
63321;BME280;49449;48.800;9.534;2022-12-18T08:34:53;99838.41;;;-3.68;40.52
63321;BME280;49449;48.800;9.534;2022-12-18T08:37:20;99840.22;;;-3.31;41.76
63321;BME280;49449;48.800;9.534;2022-12-18T08:39:48;99842.69;;;-3.17;40.82
63321;BME280;49449;48.800;9.534;2022-12-18T08:42:18;99840.44;;;-2.85;39.00
63321;BME280;49449;48.800;9.534;2022-12-18T08:45:04;99833.16;;;-1.84;37.71
63321;BME280;49449;48.800;9.534;2022-12-18T08:47:32;99842.34;;;-1.92;36.62
63321;BME280;49449;48.800;9.534;2022-12-18T08:50:00;99838.00;;;-1.69;36.58
63321;BME280;49449;48.800;9.534;2022-12-18T08:52:27;99842.50;;;-1.25;37.84
63321;BME280;49449;48.800;9.534;2022-12-18T08:54:55;99833.22;;;-0.29;35.97
63321;BME280;49449;48.800;9.534;2022-12-18T08:57:24;99835.84;;;0.44;34.63
63321;BME280;49449;48.800;9.534;2022-12-18T08:59:52;99834.44;;;1.30;32.49
63321;BME280;49449;48.800;9.534;2022-12-18T09:02:20;99839.28;;;1.74;31.73
63321;BME280;49449;48.800;9.534;2022-12-18T09:04:48;99836.50;;;2.05;31.83
63321;BME280;49449;48.800;9.534;2022-12-18T09:07:19;99842.69;;;2.51;30.76
63321;BME280;49449;48.800;9.534;2022-12-18T09:09:46;99832.50;;;2.85;29.79
63321;BME280;49449;48.800;9.534;2022-12-18T09:12:14;99831.91;;;3.19;30.29
63321;BME280;49449;48.800;9.534;2022-12-18T09:14:43;99830.25;;;3.90;28.50
63321;BME280;49449;48.800;9.534;2022-12-18T09:17:11;99820.47;;;4.45;27.60
63321;BME280;49449;48.800;9.534;2022-12-18T09:19:39;99814.47;;;4.61;26.96
63321;BME280;49449;48.800;9.534;2022-12-18T09:22:06;99808.13;;;5.06;26.65
63321;BME280;49449;48.800;9.534;2022-12-18T09:24:34;99805.22;;;5.83;26.16
63321;BME280;49449;48.800;9.534;2022-12-18T09:27:02;99807.63;;;6.25;26.38
63321;BME280;49449;48.800;9.534;2022-12-18T09:29:30;99810.09;;;6.19;25.36
63321;BME280;49449;48.800;9.534;2022-12-18T09:31:59;99808.25;;;6.83;25.03
63321;BME280;49449;48.800;9.534;2022-12-18T09:34:26;99806.91;;;7.19;24.07
63321;BME280;49449;48.800;9.534;2022-12-18T09:36:54;99802.63;;;7.87;23.28
63321;BME280;49449;48.800;9.534;2022-12-18T09:39:22;99801.41;;;8.43;23.32
63321;BME280;49449;48.800;9.534;2022-12-18T09:41:52;99797.69;;;9.03;22.10
63321;BME280;49449;48.800;9.534;2022-12-18T09:44:24;99801.03;;;9.34;22.04
63321;BME280;49449;48.800;9.534;2022-12-18T09:47:04;99800.44;;;9.60;22.20
63321;BME280;49449;48.800;9.534;2022-12-18T09:49:40;99801.69;;;10.14;21.21
63321;BME280;49449;48.800;9.534;2022-12-18T09:52:14;99791.31;;;10.47;21.08
63321;BME280;49449;48.800;9.534;2022-12-18T09:54:46;99782.75;;;10.87;20.30
63321;BME280;49449;48.800;9.534;2022-12-18T09:57:17;99783.19;;;11.10;20.53
63321;BME280;49449;48.800;9.534;2022-12-18T09:59:48;99778.31;;;11.00;21.33
63321;BME280;49449;48.800;9.534;2022-12-18T10:02:20;99787.06;;;11.08;20.37
63321;BME280;49449;48.800;9.534;2022-12-18T10:04:50;99780.78;;;11.22;20.21
63321;BME280;49449;48.800;9.534;2022-12-18T10:07:26;99778.34;;;11.47;19.84
63321;BME280;49449;48.800;9.534;2022-12-18T10:10:02;99768.00;;;11.92;19.38
63321;BME280;49449;48.800;9.534;2022-12-18T10:12:39;99762.22;;;12.22;19.98
63321;BME280;49449;48.800;9.534;2022-12-18T10:15:14;99756.47;;;12.32;18.54
63321;BME280;49449;48.800;9.534;2022-12-18T10:17:51;99754.41;;;12.41;18.30
63321;BME280;49449;48.800;9.534;2022-12-18T10:20:25;99754.03;;;12.30;19.22
63321;BME280;49449;48.800;9.534;2022-12-18T10:23:02;99764.75;;;11.90;19.39
63321;BME280;49449;48.800;9.534;2022-12-18T10:25:37;99763.28;;;11.81;20.07
63321;BME280;49449;48.800;9.534;2022-12-18T10:28:10;99756.97;;;11.75;20.17
63321;BME280;49449;48.800;9.534;2022-12-18T10:30:40;99769.56;;;11.13;20.04
63321;BME280;49449;48.800;9.534;2022-12-18T10:33:11;99774.97;;;10.85;21.08
63321;BME280;49449;48.800;9.534;2022-12-18T10:35:43;99767.09;;;10.02;21.78
63321;BME280;49449;48.800;9.534;2022-12-18T10:38:25;99779.66;;;8.85;25.70
63321;BME280;49449;48.800;9.534;2022-12-18T10:40:55;99775.63;;;8.23;24.65
63321;BME280;49449;48.800;9.534;2022-12-18T10:43:26;99772.56;;;7.82;25.50
63321;BME280;49449;48.800;9.534;2022-12-18T10:46:03;99775.47;;;7.26;24.26
63321;BME280;49449;48.800;9.534;2022-12-18T10:48:38;99783.75;;;6.91;24.86
63321;BME280;49449;48.800;9.534;2022-12-18T10:51:07;99780.31;;;6.51;24.15
63321;BME280;49449;48.800;9.534;2022-12-18T10:53:37;99786.94;;;6.31;25.73
63321;BME280;49449;48.800;9.534;2022-12-18T10:56:06;99792.41;;;6.04;26.03
63321;BME280;49449;48.800;9.534;2022-12-18T10:58:36;99796.38;;;5.92;26.63
63321;BME280;49449;48.800;9.534;2022-12-18T11:01:08;99796.88;;;5.71;25.92
63321;BME280;49449;48.800;9.534;2022-12-18T11:03:39;99808.34;;;5.54;27.02
63321;BME280;49449;48.800;9.534;2022-12-18T11:06:09;99806.53;;;5.38;26.24
63321;BME280;49449;48.800;9.534;2022-12-18T11:08:38;99796.53;;;5.25;28.08
63321;BME280;49449;48.800;9.534;2022-12-18T11:11:15;99782.91;;;5.05;27.39
63321;BME280;49449;48.800;9.534;2022-12-18T11:13:57;99783.22;;;5.02;27.52
63321;BME280;49449;48.800;9.534;2022-12-18T11:16:26;99773.50;;;4.86;28.56
63321;BME280;49449;48.800;9.534;2022-12-18T11:19:09;99775.41;;;4.67;28.12
63321;BME280;49449;48.800;9.534;2022-12-18T11:21:41;99773.75;;;4.58;28.34
63321;BME280;49449;48.800;9.534;2022-12-18T11:24:19;99773.91;;;4.56;27.85
63321;BME280;49449;48.800;9.534;2022-12-18T11:26:48;99767.31;;;4.44;26.89
63321;BME280;49449;48.800;9.534;2022-12-18T11:29:24;99766.06;;;4.22;27.67
63321;BME280;49449;48.800;9.534;2022-12-18T11:32:24;99758.19;;;4.14;28.24
63321;BME280;49449;48.800;9.534;2022-12-18T11:35:00;99757.19;;;4.15;28.49
63321;BME280;49449;48.800;9.534;2022-12-18T11:37:29;99752.22;;;4.04;28.67
63321;BME280;49449;48.800;9.534;2022-12-18T11:40:01;99755.22;;;4.09;29.72
63321;BME280;49449;48.800;9.534;2022-12-18T11:42:35;99749.16;;;4.08;28.17
63321;BME280;49449;48.800;9.534;2022-12-18T11:45:27;99746.56;;;4.08;27.54
63321;BME280;49449;48.800;9.534;2022-12-18T11:47:58;99749.63;;;3.77;27.98
63321;BME280;49449;48.800;9.534;2022-12-18T11:50:45;99745.41;;;3.85;28.72
63321;BME280;49449;48.800;9.534;2022-12-18T11:53:13;99739.63;;;3.73;29.08
63321;BME280;49449;48.800;9.534;2022-12-18T11:55:47;99738.66;;;3.74;28.63
63321;BME280;49449;48.800;9.534;2022-12-18T11:58:25;99750.28;;;3.17;28.78
63321;BME280;49449;48.800;9.534;2022-12-18T12:01:03;99733.13;;;3.15;29.97
63321;BME280;49449;48.800;9.534;2022-12-18T12:03:39;99725.50;;;3.03;29.57
63321;BME280;49449;48.800;9.534;2022-12-18T12:06:16;99726.31;;;3.22;29.47
63321;BME280;49449;48.800;9.534;2022-12-18T12:08:57;99727.38;;;3.29;30.27
63321;BME280;49449;48.800;9.534;2022-12-18T12:11:43;99722.56;;;3.24;29.49
63321;BME280;49449;48.800;9.534;2022-12-18T12:14:31;99718.16;;;3.25;30.38
63321;BME280;49449;48.800;9.534;2022-12-18T12:17:03;99720.22;;;3.31;30.17
63321;BME280;49449;48.800;9.534;2022-12-18T12:19:42;99718.78;;;3.37;30.32
63321;BME280;49449;48.800;9.534;2022-12-18T12:22:20;99700.25;;;3.48;29.49
63321;BME280;49449;48.800;9.534;2022-12-18T12:25:01;99700.22;;;3.22;29.20
63321;BME280;49449;48.800;9.534;2022-12-18T12:27:38;99695.56;;;3.16;29.58
63321;BME280;49449;48.800;9.534;2022-12-18T12:30:16;99697.41;;;3.23;29.80
63321;BME280;49449;48.800;9.534;2022-12-18T12:32:57;99705.09;;;3.25;30.35
63321;BME280;49449;48.800;9.534;2022-12-18T12:35:35;99713.09;;;3.23;30.07
63321;BME280;49449;48.800;9.534;2022-12-18T12:38:12;99713.09;;;2.87;29.72
63321;BME280;49449;48.800;9.534;2022-12-18T12:40:47;99712.72;;;2.82;29.96
63321;BME280;49449;48.800;9.534;2022-12-18T12:43:27;99708.53;;;2.72;30.64
63321;BME280;49449;48.800;9.534;2022-12-18T12:46:00;99705.75;;;2.83;31.89
63321;BME280;49449;48.800;9.534;2022-12-18T12:48:39;99705.34;;;2.78;32.41
63321;BME280;49449;48.800;9.534;2022-12-18T12:51:14;99706.22;;;2.68;31.18
63321;BME280;49449;48.800;9.534;2022-12-18T12:53:45;99709.69;;;2.69;32.47
63321;BME280;49449;48.800;9.534;2022-12-18T12:56:15;99704.13;;;2.72;30.93
63321;BME280;49449;48.800;9.534;2022-12-18T12:58:55;99706.91;;;2.71;30.53
63321;BME280;49449;48.800;9.534;2022-12-18T13:01:32;99709.53;;;2.71;31.03
63321;BME280;49449;48.800;9.534;2022-12-18T13:04:12;99713.53;;;2.65;31.18
63321;BME280;49449;48.800;9.534;2022-12-18T13:06:46;99714.56;;;2.26;30.45
63321;BME280;49449;48.800;9.534;2022-12-18T13:09:16;99712.63;;;1.91;30.54
63321;BME280;49449;48.800;9.534;2022-12-18T13:11:45;99708.56;;;1.79;31.24
63321;BME280;49449;48.800;9.534;2022-12-18T13:14:32;99708.81;;;1.95;31.73
63321;BME280;49449;48.800;9.534;2022-12-18T13:17:29;99708.66;;;1.97;33.72
63321;BME280;49449;48.800;9.534;2022-12-18T13:20:07;99717.69;;;2.02;33.87
63321;BME280;49449;48.800;9.534;2022-12-18T13:22:37;99730.00;;;2.10;32.40
63321;BME280;49449;48.800;9.534;2022-12-18T13:25:33;99725.06;;;2.07;33.21
63321;BME280;49449;48.800;9.534;2022-12-18T13:28:07;99721.66;;;2.06;32.48
63321;BME280;49449;48.800;9.534;2022-12-18T13:30:47;99715.63;;;2.06;32.45
63321;BME280;49449;48.800;9.534;2022-12-18T13:33:45;99719.50;;;2.02;35.14
63321;BME280;49449;48.800;9.534;2022-12-18T13:36:33;99712.47;;;2.02;35.65